sensor_id;sensor_type;location;lat;lon;timestamp;P1;durP1;ratioP1;P2;durP2;ratioP2
75506;SDS011;64086;43.220;27.878;2023-02-01T00:01:55;13.60;;;8.60;;
75506;SDS011;64086;43.220;27.878;2023-02-01T00:04:21;13.68;;;9.00;;
75506;SDS011;64086;43.220;27.878;2023-02-01T00:06:46;14.45;;;8.65;;
75506;SDS011;64086;43.220;27.878;2023-02-01T00:09:12;14.43;;;9.07;;
75506;SDS011;64086;43.220;27.878;2023-02-01T00:11:37;13.18;;;8.30;;
75506;SDS011;64086;43.220;27.878;2023-02-01T00:14:03;14.02;;;8.60;;
75506;SDS011;64086;43.220;27.878;2023-02-01T00:16:29;12.95;;;8.52;;
75506;SDS011;64086;43.220;27.878;2023-02-01T00:19:05;14.48;;;8.40;;
75506;SDS011;64086;43.220;27.878;2023-02-01T00:21:33;15.65;;;8.85;;
75506;SDS011;64086;43.220;27.878;2023-02-01T00:23:58;17.15;;;9.48;;
75506;SDS011;64086;43.220;27.878;2023-02-01T00:26:31;12.02;;;8.20;;
75506;SDS011;64086;43.220;27.878;2023-02-01T00:29:03;13.85;;;8.98;;
75506;SDS011;64086;43.220;27.878;2023-02-01T00:31:30;14.93;;;9.25;;
75506;SDS011;64086;43.220;27.878;2023-02-01T00:33:56;14.75;;;8.82;;
75506;SDS011;64086;43.220;27.878;2023-02-01T00:36:21;15.02;;;9.40;;
75506;SDS011;64086;43.220;27.878;2023-02-01T00:38:47;14.00;;;9.52;;
75506;SDS011;64086;43.220;27.878;2023-02-01T00:41:13;16.20;;;9.05;;
75506;SDS011;64086;43.220;27.878;2023-02-01T00:43:40;14.15;;;8.70;;
75506;SDS011;64086;43.220;27.878;2023-02-01T00:46:06;13.50;;;8.18;;
75506;SDS011;64086;43.220;27.878;2023-02-01T00:48:31;13.52;;;8.80;;
75506;SDS011;64086;43.220;27.878;2023-02-01T00:51:00;14.50;;;8.77;;
75506;SDS011;64086;43.220;27.878;2023-02-01T00:53:27;14.02;;;8.93;;
75506;SDS011;64086;43.220;27.878;2023-02-01T00:55:53;13.98;;;8.40;;
75506;SDS011;64086;43.220;27.878;2023-02-01T00:58:18;13.15;;;8.00;;
75506;SDS011;64086;43.220;27.878;2023-02-01T01:00:43;12.57;;;8.05;;
75506;SDS011;64086;43.220;27.878;2023-02-01T01:03:09;14.80;;;8.38;;
75506;SDS011;64086;43.220;27.878;2023-02-01T01:05:56;14.45;;;8.52;;
75506;SDS011;64086;43.220;27.878;2023-02-01T01:08:22;11.75;;;8.00;;
75506;SDS011;64086;43.220;27.878;2023-02-01T01:10:47;13.13;;;8.18;;
75506;SDS011;64086;43.220;27.878;2023-02-01T01:13:14;12.13;;;7.63;;
75506;SDS011;64086;43.220;27.878;2023-02-01T01:15:40;12.32;;;8.52;;
75506;SDS011;64086;43.220;27.878;2023-02-01T01:18:06;12.77;;;7.55;;
75506;SDS011;64086;43.220;27.878;2023-02-01T01:20:33;13.95;;;8.40;;
75506;SDS011;64086;43.220;27.878;2023-02-01T01:22:59;14.45;;;8.57;;
75506;SDS011;64086;43.220;27.878;2023-02-01T01:25:25;13.27;;;8.32;;
75506;SDS011;64086;43.220;27.878;2023-02-01T01:27:50;13.80;;;7.90;;
75506;SDS011;64086;43.220;27.878;2023-02-01T01:30:16;13.88;;;8.73;;
75506;SDS011;64086;43.220;27.878;2023-02-01T01:32:41;12.88;;;8.20;;
75506;SDS011;64086;43.220;27.878;2023-02-01T01:35:07;12.55;;;8.43;;
75506;SDS011;64086;43.220;27.878;2023-02-01T01:37:32;12.95;;;8.60;;
75506;SDS011;64086;43.220;27.878;2023-02-01T01:39:58;14.77;;;9.32;;
75506;SDS011;64086;43.220;27.878;2023-02-01T01:42:23;12.20;;;8.10;;
75506;SDS011;64086;43.220;27.878;2023-02-01T01:47:24;14.82;;;9.00;;
75506;SDS011;64086;43.220;27.878;2023-02-01T01:49:50;13.57;;;8.80;;
75506;SDS011;64086;43.220;27.878;2023-02-01T01:52:16;13.90;;;9.10;;
75506;SDS011;64086;43.220;27.878;2023-02-01T01:54:43;16.33;;;9.88;;
75506;SDS011;64086;43.220;27.878;2023-02-01T01:57:17;14.38;;;9.20;;
75506;SDS011;64086;43.220;27.878;2023-02-01T01:59:50;13.00;;;8.90;;
75506;SDS011;64086;43.220;27.878;2023-02-01T02:02:20;14.57;;;9.27;;
75506;SDS011;64086;43.220;27.878;2023-02-01T02:04:45;14.13;;;9.00;;
75506;SDS011;64086;43.220;27.878;2023-02-01T02:07:11;14.68;;;8.82;;
75506;SDS011;64086;43.220;27.878;2023-02-01T02:09:41;14.30;;;9.30;;
75506;SDS011;64086;43.220;27.878;2023-02-01T02:12:08;15.70;;;9.65;;
75506;SDS011;64086;43.220;27.878;2023-02-01T02:14:34;14.27;;;9.18;;
75506;SDS011;64086;43.220;27.878;2023-02-01T02:28:04;12.52;;;8.05;;
75506;SDS011;64086;43.220;27.878;2023-02-01T02:33:42;12.43;;;8.57;;
75506;SDS011;64086;43.220;27.878;2023-02-01T02:39:15;15.98;;;9.25;;
75506;SDS011;64086;43.220;27.878;2023-02-01T02:42:04;14.10;;;8.90;;
75506;SDS011;64086;43.220;27.878;2023-02-01T02:45:02;14.85;;;9.13;;
75506;SDS011;64086;43.220;27.878;2023-02-01T02:56:58;13.80;;;8.43;;
75506;SDS011;64086;43.220;27.878;2023-02-01T02:59:44;13.85;;;9.25;;
75506;SDS011;64086;43.220;27.878;2023-02-01T03:02:29;15.15;;;9.23;;
75506;SDS011;64086;43.220;27.878;2023-02-01T03:05:14;14.90;;;9.40;;
75506;SDS011;64086;43.220;27.878;2023-02-01T03:12:49;14.13;;;9.40;;
75506;SDS011;64086;43.220;27.878;2023-02-01T03:15:26;15.50;;;8.65;;
75506;SDS011;64086;43.220;27.878;2023-02-01T03:18:13;15.73;;;9.63;;
75506;SDS011;64086;43.220;27.878;2023-02-01T03:20:42;14.05;;;9.25;;
75506;SDS011;64086;43.220;27.878;2023-02-01T03:23:10;13.18;;;9.15;;
75506;SDS011;64086;43.220;27.878;2023-02-01T03:25:37;16.05;;;10.10;;
75506;SDS011;64086;43.220;27.878;2023-02-01T03:28:04;15.40;;;9.77;;
75506;SDS011;64086;43.220;27.878;2023-02-01T03:30:34;17.70;;;10.38;;
75506;SDS011;64086;43.220;27.878;2023-02-01T03:33:03;16.52;;;10.70;;
75506;SDS011;64086;43.220;27.878;2023-02-01T03:40:51;16.65;;;11.18;;
75506;SDS011;64086;43.220;27.878;2023-02-01T03:43:23;18.17;;;10.73;;
75506;SDS011;64086;43.220;27.878;2023-02-01T03:45:52;16.88;;;11.07;;
75506;SDS011;64086;43.220;27.878;2023-02-01T03:48:20;16.88;;;10.80;;
75506;SDS011;64086;43.220;27.878;2023-02-01T03:50:49;17.92;;;11.40;;
75506;SDS011;64086;43.220;27.878;2023-02-01T03:53:18;18.17;;;11.52;;
75506;SDS011;64086;43.220;27.878;2023-02-01T03:55:45;15.52;;;10.20;;
75506;SDS011;64086;43.220;27.878;2023-02-01T03:58:12;18.42;;;11.68;;
75506;SDS011;64086;43.220;27.878;2023-02-01T04:00:40;18.80;;;12.60;;
75506;SDS011;64086;43.220;27.878;2023-02-01T04:03:06;18.65;;;12.48;;
75506;SDS011;64086;43.220;27.878;2023-02-01T04:05:32;21.27;;;13.07;;
75506;SDS011;64086;43.220;27.878;2023-02-01T04:07:58;21.25;;;12.98;;
75506;SDS011;64086;43.220;27.878;2023-02-01T04:10:24;19.13;;;13.15;;
75506;SDS011;64086;43.220;27.878;2023-02-01T04:12:49;18.92;;;11.95;;
75506;SDS011;64086;43.220;27.878;2023-02-01T04:15:15;18.38;;;12.20;;
75506;SDS011;64086;43.220;27.878;2023-02-01T04:17:40;17.42;;;11.48;;
75506;SDS011;64086;43.220;27.878;2023-02-01T04:20:06;18.63;;;11.52;;
75506;SDS011;64086;43.220;27.878;2023-02-01T04:22:32;18.58;;;12.27;;
75506;SDS011;64086;43.220;27.878;2023-02-01T04:24:57;17.15;;;11.25;;
75506;SDS011;64086;43.220;27.878;2023-02-01T04:27:22;15.98;;;11.05;;
75506;SDS011;64086;43.220;27.878;2023-02-01T04:29:48;17.98;;;11.30;;
75506;SDS011;64086;43.220;27.878;2023-02-01T04:32:16;18.17;;;11.30;;
75506;SDS011;64086;43.220;27.878;2023-02-01T04:34:42;18.77;;;12.05;;
75506;SDS011;64086;43.220;27.878;2023-02-01T04:37:07;19.23;;;11.70;;
75506;SDS011;64086;43.220;27.878;2023-02-01T04:39:33;16.75;;;11.63;;
75506;SDS011;64086;43.220;27.878;2023-02-01T04:41:59;17.75;;;11.85;;
75506;SDS011;64086;43.220;27.878;2023-02-01T04:44:24;17.27;;;11.40;;
75506;SDS011;64086;43.220;27.878;2023-02-01T04:46:50;16.63;;;11.13;;
75506;SDS011;64086;43.220;27.878;2023-02-01T04:49:15;16.90;;;11.30;;
75506;SDS011;64086;43.220;27.878;2023-02-01T04:51:41;16.23;;;10.93;;
75506;SDS011;64086;43.220;27.878;2023-02-01T04:54:07;15.60;;;10.68;;
75506;SDS011;64086;43.220;27.878;2023-02-01T04:56:32;17.02;;;10.70;;
75506;SDS011;64086;43.220;27.878;2023-02-01T04:58:59;17.95;;;11.07;;
75506;SDS011;64086;43.220;27.878;2023-02-01T05:01:27;16.52;;;11.00;;
75506;SDS011;64086;43.220;27.878;2023-02-01T05:03:53;16.13;;;10.43;;
75506;SDS011;64086;43.220;27.878;2023-02-01T05:06:18;17.63;;;10.77;;
75506;SDS011;64086;43.220;27.878;2023-02-01T05:08:43;16.63;;;10.77;;
75506;SDS011;64086;43.220;27.878;2023-02-01T05:11:09;16.23;;;10.45;;
75506;SDS011;64086;43.220;27.878;2023-02-01T05:13:57;15.70;;;10.05;;
75506;SDS011;64086;43.220;27.878;2023-02-01T05:16:24;14.88;;;11.10;;
75506;SDS011;64086;43.220;27.878;2023-02-01T05:18:49;17.67;;;10.88;;
75506;SDS011;64086;43.220;27.878;2023-02-01T05:21:15;18.58;;;11.50;;
75506;SDS011;64086;43.220;27.878;2023-02-01T05:23:40;16.98;;;10.68;;
75506;SDS011;64086;43.220;27.878;2023-02-01T05:26:24;14.70;;;10.63;;
75506;SDS011;64086;43.220;27.878;2023-02-01T05:28:50;15.93;;;10.85;;
75506;SDS011;64086;43.220;27.878;2023-02-01T05:31:16;18.77;;;11.48;;
75506;SDS011;64086;43.220;27.878;2023-02-01T05:33:41;16.38;;;11.30;;
75506;SDS011;64086;43.220;27.878;2023-02-01T05:36:07;17.23;;;11.13;;
75506;SDS011;64086;43.220;27.878;2023-02-01T05:38:32;18.02;;;11.43;;
75506;SDS011;64086;43.220;27.878;2023-02-01T05:40:58;17.55;;;11.43;;
75506;SDS011;64086;43.220;27.878;2023-02-01T05:43:23;17.75;;;12.02;;
75506;SDS011;64086;43.220;27.878;2023-02-01T05:45:49;19.02;;;12.38;;
75506;SDS011;64086;43.220;27.878;2023-02-01T05:48:17;15.98;;;11.23;;
75506;SDS011;64086;43.220;27.878;2023-02-01T05:50:42;15.90;;;10.70;;
75506;SDS011;64086;43.220;27.878;2023-02-01T05:53:08;16.23;;;11.85;;
75506;SDS011;64086;43.220;27.878;2023-02-01T05:55:33;19.50;;;11.25;;
75506;SDS011;64086;43.220;27.878;2023-02-01T05:57:59;15.52;;;10.98;;
75506;SDS011;64086;43.220;27.878;2023-02-01T06:00:24;16.13;;;11.13;;
75506;SDS011;64086;43.220;27.878;2023-02-01T06:02:50;16.83;;;10.73;;
75506;SDS011;64086;43.220;27.878;2023-02-01T06:05:15;14.65;;;10.43;;
75506;SDS011;64086;43.220;27.878;2023-02-01T06:07:41;16.80;;;10.70;;
75506;SDS011;64086;43.220;27.878;2023-02-01T06:10:07;17.67;;;11.10;;
75506;SDS011;64086;43.220;27.878;2023-02-01T06:12:33;20.60;;;12.40;;
75506;SDS011;64086;43.220;27.878;2023-02-01T06:14:58;23.30;;;14.68;;
75506;SDS011;64086;43.220;27.878;2023-02-01T06:17:24;20.08;;;13.45;;
75506;SDS011;64086;43.220;27.878;2023-02-01T06:19:50;18.95;;;13.07;;
75506;SDS011;64086;43.220;27.878;2023-02-01T06:22:15;18.35;;;12.02;;
75506;SDS011;64086;43.220;27.878;2023-02-01T06:24:41;18.95;;;13.70;;
75506;SDS011;64086;43.220;27.878;2023-02-01T06:27:06;19.50;;;13.95;;
75506;SDS011;64086;43.220;27.878;2023-02-01T06:29:32;21.52;;;15.07;;
75506;SDS011;64086;43.220;27.878;2023-02-01T06:31:58;21.40;;;14.77;;
75506;SDS011;64086;43.220;27.878;2023-02-01T06:34:24;19.73;;;14.25;;
75506;SDS011;64086;43.220;27.878;2023-02-01T06:36:49;16.63;;;13.20;;
75506;SDS011;64086;43.220;27.878;2023-02-01T06:39:15;22.23;;;14.57;;
75506;SDS011;64086;43.220;27.878;2023-02-01T06:41:41;18.02;;;12.77;;
75506;SDS011;64086;43.220;27.878;2023-02-01T06:44:08;17.85;;;12.15;;
75506;SDS011;64086;43.220;27.878;2023-02-01T06:46:33;17.58;;;12.63;;
75506;SDS011;64086;43.220;27.878;2023-02-01T06:48:59;20.00;;;13.38;;
75506;SDS011;64086;43.220;27.878;2023-02-01T06:51:25;18.23;;;12.55;;
75506;SDS011;64086;43.220;27.878;2023-02-01T06:53:51;18.10;;;12.05;;
75506;SDS011;64086;43.220;27.878;2023-02-01T06:56:17;15.25;;;11.02;;
75506;SDS011;64086;43.220;27.878;2023-02-01T06:58:43;14.27;;;9.35;;
75506;SDS011;64086;43.220;27.878;2023-02-01T07:01:09;11.93;;;9.88;;
75506;SDS011;64086;43.220;27.878;2023-02-01T07:03:35;13.18;;;10.18;;
75506;SDS011;64086;43.220;27.878;2023-02-01T07:06:00;12.80;;;10.07;;
75506;SDS011;64086;43.220;27.878;2023-02-01T07:08:27;13.85;;;10.40;;
75506;SDS011;64086;43.220;27.878;2023-02-01T07:10:53;12.27;;;9.48;;
75506;SDS011;64086;43.220;27.878;2023-02-01T07:13:18;11.73;;;9.05;;
75506;SDS011;64086;43.220;27.878;2023-02-01T07:15:44;14.18;;;9.80;;
75506;SDS011;64086;43.220;27.878;2023-02-01T07:18:11;10.75;;;8.90;;
75506;SDS011;64086;43.220;27.878;2023-02-01T07:20:39;11.73;;;9.55;;
75506;SDS011;64086;43.220;27.878;2023-02-01T07:23:04;10.02;;;8.52;;
75506;SDS011;64086;43.220;27.878;2023-02-01T07:25:30;10.90;;;9.55;;
75506;SDS011;64086;43.220;27.878;2023-02-01T07:27:55;11.20;;;8.70;;
75506;SDS011;64086;43.220;27.878;2023-02-01T07:30:21;9.77;;;8.75;;
75506;SDS011;64086;43.220;27.878;2023-02-01T07:32:46;9.63;;;8.70;;
75506;SDS011;64086;43.220;27.878;2023-02-01T07:35:12;10.02;;;9.02;;
75506;SDS011;64086;43.220;27.878;2023-02-01T07:37:39;9.90;;;8.90;;
75506;SDS011;64086;43.220;27.878;2023-02-01T07:40:05;10.02;;;8.95;;
75506;SDS011;64086;43.220;27.878;2023-02-01T07:42:30;10.77;;;9.63;;
75506;SDS011;64086;43.220;27.878;2023-02-01T07:44:56;11.48;;;10.23;;
75506;SDS011;64086;43.220;27.878;2023-02-01T07:47:21;13.48;;;11.57;;
75506;SDS011;64086;43.220;27.878;2023-02-01T07:49:47;12.88;;;11.63;;
75506;SDS011;64086;43.220;27.878;2023-02-01T07:52:12;13.68;;;12.48;;
75506;SDS011;64086;43.220;27.878;2023-02-01T07:54:40;14.48;;;13.07;;
75506;SDS011;64086;43.220;27.878;2023-02-01T07:57:06;14.38;;;12.95;;
75506;SDS011;64086;43.220;27.878;2023-02-01T07:59:33;14.95;;;13.45;;
75506;SDS011;64086;43.220;27.878;2023-02-01T08:01:59;15.73;;;14.25;;
75506;SDS011;64086;43.220;27.878;2023-02-01T08:04:24;15.80;;;14.35;;
75506;SDS011;64086;43.220;27.878;2023-02-01T08:06:50;15.10;;;13.52;;
75506;SDS011;64086;43.220;27.878;2023-02-01T08:09:15;15.18;;;13.60;;
75506;SDS011;64086;43.220;27.878;2023-02-01T08:11:41;13.80;;;12.48;;
75506;SDS011;64086;43.220;27.878;2023-02-01T08:14:06;13.68;;;12.38;;
75506;SDS011;64086;43.220;27.878;2023-02-01T08:16:32;14.85;;;13.25;;
75506;SDS011;64086;43.220;27.878;2023-02-01T08:19:00;15.50;;;13.85;;
75506;SDS011;64086;43.220;27.878;2023-02-01T08:21:25;14.82;;;13.30;;
75506;SDS011;64086;43.220;27.878;2023-02-01T08:24:01;14.90;;;13.05;;
75506;SDS011;64086;43.220;27.878;2023-02-01T08:26:28;13.43;;;12.15;;
75506;SDS011;64086;43.220;27.878;2023-02-01T08:28:54;14.40;;;11.57;;
75506;SDS011;64086;43.220;27.878;2023-02-01T08:31:21;13.50;;;12.13;;
75506;SDS011;64086;43.220;27.878;2023-02-01T08:33:49;12.75;;;11.50;;
75506;SDS011;64086;43.220;27.878;2023-02-01T08:36:16;11.68;;;10.57;;
75506;SDS011;64086;43.220;27.878;2023-02-01T08:38:42;12.70;;;10.93;;
75506;SDS011;64086;43.220;27.878;2023-02-01T08:41:08;13.52;;;12.10;;
75506;SDS011;64086;43.220;27.878;2023-02-01T08:46:07;13.80;;;10.98;;
75506;SDS011;64086;43.220;27.878;2023-02-01T08:48:33;14.00;;;11.18;;
75506;SDS011;64086;43.220;27.878;2023-02-01T08:51:06;11.85;;;10.65;;
75506;SDS011;64086;43.220;27.878;2023-02-01T08:53:33;11.70;;;10.13;;
75506;SDS011;64086;43.220;27.878;2023-02-01T08:55:59;12.55;;;9.60;;
75506;SDS011;64086;43.220;27.878;2023-02-01T08:58:25;11.93;;;10.18;;
75506;SDS011;64086;43.220;27.878;2023-02-01T09:00:51;14.70;;;11.10;;
75506;SDS011;64086;43.220;27.878;2023-02-01T09:03:16;11.77;;;9.77;;
75506;SDS011;64086;43.220;27.878;2023-02-01T09:05:42;11.70;;;8.95;;
75506;SDS011;64086;43.220;27.878;2023-02-01T09:08:07;12.60;;;8.75;;
75506;SDS011;64086;43.220;27.878;2023-02-01T09:10:33;11.00;;;8.43;;
75506;SDS011;64086;43.220;27.878;2023-02-01T09:12:59;9.88;;;8.27;;
75506;SDS011;64086;43.220;27.878;2023-02-01T09:15:25;12.35;;;8.32;;
75506;SDS011;64086;43.220;27.878;2023-02-01T09:17:51;11.35;;;8.85;;
75506;SDS011;64086;43.220;27.878;2023-02-01T09:20:16;9.80;;;7.38;;
75506;SDS011;64086;43.220;27.878;2023-02-01T09:22:43;13.00;;;8.10;;
75506;SDS011;64086;43.220;27.878;2023-02-01T09:25:09;10.88;;;9.02;;
75506;SDS011;64086;43.220;27.878;2023-02-01T09:27:34;10.23;;;8.07;;
75506;SDS011;64086;43.220;27.878;2023-02-01T09:30:00;8.57;;;7.63;;
75506;SDS011;64086;43.220;27.878;2023-02-01T09:32:26;9.70;;;7.35;;
75506;SDS011;64086;43.220;27.878;2023-02-01T09:34:51;10.25;;;8.07;;
75506;SDS011;64086;43.220;27.878;2023-02-01T09:37:17;10.25;;;7.72;;
75506;SDS011;64086;43.220;27.878;2023-02-01T09:39:43;8.15;;;6.82;;
75506;SDS011;64086;43.220;27.878;2023-02-01T09:42:16;10.73;;;6.88;;
75506;SDS011;64086;43.220;27.878;2023-02-01T09:47:19;8.02;;;7.07;;
75506;SDS011;64086;43.220;27.878;2023-02-01T09:49:48;8.75;;;7.70;;
75506;SDS011;64086;43.220;27.878;2023-02-01T09:52:31;8.30;;;7.40;;
75506;SDS011;64086;43.220;27.878;2023-02-01T09:55:06;10.77;;;7.47;;
75506;SDS011;64086;43.220;27.878;2023-02-01T10:01:05;9.90;;;6.93;;
75506;SDS011;64086;43.220;27.878;2023-02-01T10:03:40;10.25;;;7.13;;
75506;SDS011;64086;43.220;27.878;2023-02-01T10:06:12;10.02;;;6.70;;
75506;SDS011;64086;43.220;27.878;2023-02-01T10:17:50;7.20;;;5.57;;
75506;SDS011;64086;43.220;27.878;2023-02-01T10:26:33;10.10;;;5.43;;
75506;SDS011;64086;43.220;27.878;2023-02-01T10:29:04;6.72;;;5.55;;
75506;SDS011;64086;43.220;27.878;2023-02-01T10:31:41;9.38;;;6.30;;
75506;SDS011;64086;43.220;27.878;2023-02-01T10:34:11;8.02;;;6.57;;
75506;SDS011;64086;43.220;27.878;2023-02-01T10:36:57;8.15;;;6.82;;
75506;SDS011;64086;43.220;27.878;2023-02-01T10:39:25;8.55;;;7.22;;
75506;SDS011;64086;43.220;27.878;2023-02-01T10:41:51;9.65;;;6.93;;
75506;SDS011;64086;43.220;27.878;2023-02-01T10:44:18;7.72;;;6.43;;
75506;SDS011;64086;43.220;27.878;2023-02-01T10:46:49;8.15;;;6.07;;
75506;SDS011;64086;43.220;27.878;2023-02-01T10:49:22;8.27;;;6.40;;
75506;SDS011;64086;43.220;27.878;2023-02-01T10:52:00;8.55;;;5.95;;
75506;SDS011;64086;43.220;27.878;2023-02-01T10:54:32;7.88;;;5.50;;
75506;SDS011;64086;43.220;27.878;2023-02-01T10:56:59;8.25;;;6.50;;
75506;SDS011;64086;43.220;27.878;2023-02-01T10:59:25;8.35;;;6.00;;
75506;SDS011;64086;43.220;27.878;2023-02-01T11:02:00;12.50;;;6.93;;
75506;SDS011;64086;43.220;27.878;2023-02-01T11:04:27;8.65;;;5.72;;
75506;SDS011;64086;43.220;27.878;2023-02-01T11:07:12;8.77;;;6.00;;
75506;SDS011;64086;43.220;27.878;2023-02-01T11:09:39;7.32;;;5.20;;
75506;SDS011;64086;43.220;27.878;2023-02-01T11:12:10;8.15;;;5.00;;
75506;SDS011;64086;43.220;27.878;2023-02-01T11:14:47;7.13;;;5.32;;
75506;SDS011;64086;43.220;27.878;2023-02-01T11:17:32;8.13;;;5.30;;
75506;SDS011;64086;43.220;27.878;2023-02-01T11:20:01;6.85;;;5.47;;
75506;SDS011;64086;43.220;27.878;2023-02-01T11:22:34;6.45;;;5.40;;
75506;SDS011;64086;43.220;27.878;2023-02-01T11:24:59;7.55;;;5.13;;
75506;SDS011;64086;43.220;27.878;2023-02-01T11:27:26;7.97;;;4.43;;
75506;SDS011;64086;43.220;27.878;2023-02-01T11:29:53;7.22;;;4.72;;
75506;SDS011;64086;43.220;27.878;2023-02-01T11:32:22;6.30;;;4.28;;
75506;SDS011;64086;43.220;27.878;2023-02-01T11:34:59;5.80;;;4.03;;
75506;SDS011;64086;43.220;27.878;2023-02-01T11:37:31;8.57;;;4.10;;
75506;SDS011;64086;43.220;27.878;2023-02-01T11:39:59;5.18;;;3.85;;
75506;SDS011;64086;43.220;27.878;2023-02-01T11:42:27;7.97;;;4.90;;
75506;SDS011;64086;43.220;27.878;2023-02-01T11:45:12;7.22;;;4.63;;
75506;SDS011;64086;43.220;27.878;2023-02-01T11:47:46;7.00;;;4.43;;
75506;SDS011;64086;43.220;27.878;2023-02-01T11:50:28;8.32;;;5.07;;
75506;SDS011;64086;43.220;27.878;2023-02-01T11:58:16;7.18;;;4.30;;
75506;SDS011;64086;43.220;27.878;2023-02-01T12:01:07;8.70;;;4.20;;
75506;SDS011;64086;43.220;27.878;2023-02-01T12:38:58;7.72;;;5.30;;
75506;SDS011;64086;43.220;27.878;2023-02-01T12:52:39;7.03;;;4.47;;
75506;SDS011;64086;43.220;27.878;2023-02-01T12:57:42;7.25;;;4.45;;
75506;SDS011;64086;43.220;27.878;2023-02-01T13:00:26;12.50;;;4.10;;
75506;SDS011;64086;43.220;27.878;2023-02-01T13:02:59;5.68;;;3.78;;
75506;SDS011;64086;43.220;27.878;2023-02-01T13:05:40;8.70;;;4.30;;
75506;SDS011;64086;43.220;27.878;2023-02-01T13:08:28;6.68;;;3.97;;
75506;SDS011;64086;43.220;27.878;2023-02-01T13:11:09;5.50;;;3.67;;
75506;SDS011;64086;43.220;27.878;2023-02-01T13:14:00;6.18;;;4.22;;
75506;SDS011;64086;43.220;27.878;2023-02-01T13:16:42;6.60;;;3.92;;
75506;SDS011;64086;43.220;27.878;2023-02-01T13:21:46;6.97;;;3.97;;
75506;SDS011;64086;43.220;27.878;2023-02-01T13:24:34;8.98;;;4.47;;
75506;SDS011;64086;43.220;27.878;2023-02-01T13:27:01;6.47;;;3.15;;
75506;SDS011;64086;43.220;27.878;2023-02-01T13:29:27;8.05;;;3.30;;
75506;SDS011;64086;43.220;27.878;2023-02-01T13:42:47;5.63;;;3.15;;
75506;SDS011;64086;43.220;27.878;2023-02-01T13:45:16;5.13;;;3.00;;
75506;SDS011;64086;43.220;27.878;2023-02-01T13:47:45;5.60;;;3.53;;
75506;SDS011;64086;43.220;27.878;2023-02-01T13:52:51;6.40;;;3.40;;
75506;SDS011;64086;43.220;27.878;2023-02-01T13:57:47;5.40;;;3.08;;
75506;SDS011;64086;43.220;27.878;2023-02-01T14:00:25;4.90;;;3.10;;
75506;SDS011;64086;43.220;27.878;2023-02-01T14:13:27;6.65;;;3.10;;
75506;SDS011;64086;43.220;27.878;2023-02-01T14:16:10;3.92;;;3.33;;
75506;SDS011;64086;43.220;27.878;2023-02-01T14:24:21;6.00;;;3.47;;
75506;SDS011;64086;43.220;27.878;2023-02-01T14:26:50;6.63;;;3.58;;
75506;SDS011;64086;43.220;27.878;2023-02-01T14:34:13;5.32;;;3.50;;
75506;SDS011;64086;43.220;27.878;2023-02-01T14:36:47;4.40;;;3.03;;
75506;SDS011;64086;43.220;27.878;2023-02-01T14:39:26;6.53;;;3.20;;
75506;SDS011;64086;43.220;27.878;2023-02-01T14:41:53;5.15;;;3.55;;
75506;SDS011;64086;43.220;27.878;2023-02-01T14:44:25;9.70;;;3.70;;
75506;SDS011;64086;43.220;27.878;2023-02-01T15:01:01;7.82;;;3.88;;
75506;SDS011;64086;43.220;27.878;2023-02-01T15:06:13;5.75;;;3.38;;
75506;SDS011;64086;43.220;27.878;2023-02-01T15:08:44;6.00;;;3.95;;
75506;SDS011;64086;43.220;27.878;2023-02-01T15:11:15;9.82;;;5.05;;
75506;SDS011;64086;43.220;27.878;2023-02-01T15:13:47;9.32;;;4.65;;
75506;SDS011;64086;43.220;27.878;2023-02-01T15:16:19;9.45;;;5.22;;
75506;SDS011;64086;43.220;27.878;2023-02-01T15:18:45;15.23;;;6.35;;
75506;SDS011;64086;43.220;27.878;2023-02-01T15:23:42;7.90;;;4.78;;
75506;SDS011;64086;43.220;27.878;2023-02-01T15:26:08;6.72;;;4.50;;
75506;SDS011;64086;43.220;27.878;2023-02-01T15:28:33;9.32;;;4.90;;
75506;SDS011;64086;43.220;27.878;2023-02-01T15:31:03;11.07;;;5.10;;
75506;SDS011;64086;43.220;27.878;2023-02-01T15:33:30;8.93;;;4.57;;
75506;SDS011;64086;43.220;27.878;2023-02-01T15:38:35;6.53;;;4.05;;
75506;SDS011;64086;43.220;27.878;2023-02-01T15:41:06;7.78;;;4.45;;
75506;SDS011;64086;43.220;27.878;2023-02-01T15:43:37;7.05;;;4.10;;
75506;SDS011;64086;43.220;27.878;2023-02-01T15:46:12;5.78;;;3.97;;
75506;SDS011;64086;43.220;27.878;2023-02-01T15:48:47;5.97;;;4.30;;
75506;SDS011;64086;43.220;27.878;2023-02-01T15:51:24;7.82;;;4.45;;
75506;SDS011;64086;43.220;27.878;2023-02-01T15:54:02;6.85;;;4.30;;
75506;SDS011;64086;43.220;27.878;2023-02-01T15:56:34;8.50;;;4.18;;
75506;SDS011;64086;43.220;27.878;2023-02-01T15:59:02;10.57;;;4.65;;
75506;SDS011;64086;43.220;27.878;2023-02-01T16:01:35;7.03;;;4.40;;
75506;SDS011;64086;43.220;27.878;2023-02-01T16:04:24;6.55;;;4.18;;
75506;SDS011;64086;43.220;27.878;2023-02-01T16:06:49;8.57;;;3.92;;
75506;SDS011;64086;43.220;27.878;2023-02-01T16:09:16;7.25;;;4.60;;
75506;SDS011;64086;43.220;27.878;2023-02-01T16:14:13;9.93;;;4.25;;
75506;SDS011;64086;43.220;27.878;2023-02-01T16:16:39;6.25;;;4.57;;
75506;SDS011;64086;43.220;27.878;2023-02-01T16:19:04;7.97;;;4.20;;
75506;SDS011;64086;43.220;27.878;2023-02-01T16:21:30;6.38;;;4.15;;
75506;SDS011;64086;43.220;27.878;2023-02-01T16:23:55;8.38;;;5.30;;
75506;SDS011;64086;43.220;27.878;2023-02-01T16:26:21;9.85;;;6.00;;
75506;SDS011;64086;43.220;27.878;2023-02-01T16:28:47;10.52;;;6.53;;
75506;SDS011;64086;43.220;27.878;2023-02-01T16:31:13;9.13;;;6.72;;
75506;SDS011;64086;43.220;27.878;2023-02-01T16:33:49;10.52;;;7.30;;
75506;SDS011;64086;43.220;27.878;2023-02-01T16:36:15;11.85;;;7.35;;
75506;SDS011;64086;43.220;27.878;2023-02-01T16:38:41;13.45;;;8.27;;
75506;SDS011;64086;43.220;27.878;2023-02-01T16:41:09;11.75;;;7.93;;
75506;SDS011;64086;43.220;27.878;2023-02-01T16:43:37;12.38;;;7.93;;
75506;SDS011;64086;43.220;27.878;2023-02-01T16:46:04;11.32;;;7.93;;
75506;SDS011;64086;43.220;27.878;2023-02-01T16:48:31;13.32;;;8.27;;
75506;SDS011;64086;43.220;27.878;2023-02-01T16:51:01;11.38;;;8.20;;
75506;SDS011;64086;43.220;27.878;2023-02-01T16:53:28;13.00;;;8.10;;
75506;SDS011;64086;43.220;27.878;2023-02-01T16:55:55;14.25;;;8.32;;
75506;SDS011;64086;43.220;27.878;2023-02-01T16:58:22;12.70;;;7.53;;
75506;SDS011;64086;43.220;27.878;2023-02-01T17:00:48;11.32;;;7.70;;
75506;SDS011;64086;43.220;27.878;2023-02-01T17:03:16;12.23;;;7.55;;
75506;SDS011;64086;43.220;27.878;2023-02-01T17:05:46;9.88;;;7.55;;
75506;SDS011;64086;43.220;27.878;2023-02-01T17:08:16;8.93;;;7.03;;
75506;SDS011;64086;43.220;27.878;2023-02-01T17:10:44;12.05;;;7.45;;
75506;SDS011;64086;43.220;27.878;2023-02-01T17:13:13;10.88;;;7.60;;
75506;SDS011;64086;43.220;27.878;2023-02-01T17:15:40;11.43;;;8.25;;
75506;SDS011;64086;43.220;27.878;2023-02-01T17:18:19;12.50;;;8.07;;
75506;SDS011;64086;43.220;27.878;2023-02-01T17:20:45;11.10;;;7.97;;
75506;SDS011;64086;43.220;27.878;2023-02-01T17:23:13;15.45;;;7.72;;
75506;SDS011;64086;43.220;27.878;2023-02-01T17:25:39;11.75;;;8.70;;
75506;SDS011;64086;43.220;27.878;2023-02-01T17:28:06;11.27;;;8.68;;
75506;SDS011;64086;43.220;27.878;2023-02-01T17:30:31;15.32;;;10.80;;
75506;SDS011;64086;43.220;27.878;2023-02-01T17:32:57;16.00;;;11.13;;